createdAt,value
2017-11-26T00:00:24.769Z,101050.94
2017-11-26T00:02:56.090Z,101054.00
2017-11-26T00:05:27.453Z,101052.70
2017-11-26T00:07:59.450Z,101059.63
2017-11-26T00:10:30.752Z,101063.50
2017-11-26T00:13:02.396Z,101060.13
2017-11-26T00:15:33.806Z,101064.06
2017-11-26T00:18:07.470Z,101077.02
2017-11-26T00:20:38.864Z,101071.92
2017-11-26T00:23:10.157Z,101079.41
2017-11-26T00:25:41.892Z,101080.36
2017-11-26T00:28:13.216Z,101085.19
2017-11-26T00:30:44.661Z,101086.14
2017-11-26T00:33:16.275Z,101092.17
2017-11-26T00:35:47.945Z,101092.69
2017-11-26T00:38:19.741Z,101093.00
2017-11-26T00:40:51.316Z,101095.17
2017-11-26T00:43:23.885Z,101091.36
2017-11-26T00:45:55.575Z,101091.42
2017-11-26T00:48:26.890Z,101087.11
2017-11-26T00:50:58.202Z,101090.95
2017-11-26T00:53:29.504Z,101092.69
2017-11-26T00:56:00.829Z,101102.64
2017-11-26T00:58:32.433Z,101109.22
2017-11-26T01:01:03.913Z,101107.13
2017-11-26T01:03:35.228Z,101105.38
2017-11-26T01:06:06.534Z,101110.54
2017-11-26T01:08:38.442Z,101110.55
2017-11-26T01:11:09.759Z,101107.05
2017-11-26T01:13:41.057Z,101110.55
2017-11-26T01:16:12.397Z,101110.57
2017-11-26T01:18:43.712Z,101114.00
2017-11-26T01:21:15.283Z,101116.62
2017-11-26T01:23:46.600Z,101118.84
2017-11-26T01:26:17.994Z,101117.92
2017-11-26T01:28:49.626Z,101122.73
2017-11-26T01:31:20.979Z,101122.31
2017-11-26T01:33:52.318Z,101121.49
2017-11-26T01:36:24.020Z,101125.01
2017-11-26T01:38:55.634Z,101126.38
2017-11-26T01:41:26.938Z,101125.52
2017-11-26T01:43:58.689Z,101125.13
2017-11-26T01:46:30.347Z,101127.25
2017-11-26T01:49:01.785Z,101123.78
2017-11-26T01:51:33.452Z,101128.46
2017-11-26T01:54:05.455Z,101132.37
2017-11-26T01:56:37.113Z,101149.25
2017-11-26T01:59:08.450Z,101145.36
2017-11-26T02:01:40.391Z,101152.27
2017-11-26T02:04:12.239Z,101146.23
2017-11-26T02:06:43.762Z,101148.77
2017-11-26T02:09:15.636Z,101148.78
2017-11-26T02:11:47.417Z,101156.95
2017-11-26T02:14:18.883Z,101154.89
2017-11-26T02:16:50.296Z,101159.59
2017-11-26T02:19:21.944Z,101161.70
2017-11-26T02:21:53.389Z,101150.84
2017-11-26T02:24:25.030Z,101154.33
2017-11-26T02:26:56.399Z,101159.54
2017-11-26T02:29:27.773Z,101154.50
2017-11-26T02:32:10.259Z,101153.25
2017-11-26T02:35:54.251Z,101157.12
2017-11-26T02:38:25.986Z,101161.92
2017-11-26T02:40:57.917Z,101167.16
2017-11-26T02:43:29.937Z,101166.73
2017-11-26T02:46:02.325Z,101168.44
2017-11-26T02:48:33.806Z,101171.45
2017-11-26T02:51:05.398Z,101160.22
2017-11-26T02:53:37.120Z,101158.08
2017-11-26T02:56:08.627Z,101151.58
2017-11-26T02:58:40.017Z,101156.22
2017-11-26T03:01:11.637Z,101148.84
2017-11-26T03:03:42.946Z,101144.94
2017-11-26T03:06:14.264Z,101145.34
2017-11-26T03:08:45.874Z,101144.02
2017-11-26T03:11:17.463Z,101148.78
2017-11-26T03:13:49.043Z,101150.12
2017-11-26T03:16:20.529Z,101151.02
2017-11-26T03:18:51.846Z,101152.41
2017-11-26T03:21:23.743Z,101151.97
2017-11-26T03:23:55.252Z,101152.44
2017-11-26T03:26:27.346Z,101159.37
2017-11-26T03:28:59.047Z,101163.31
2017-11-26T03:31:31.052Z,101170.70
2017-11-26T03:34:03.949Z,101177.21
2017-11-26T03:36:35.832Z,101176.33
2017-11-26T03:39:07.344Z,101191.52
2017-11-26T03:41:39.268Z,101192.81
2017-11-26T03:44:10.597Z,101194.57
2017-11-26T03:46:42.188Z,101197.59
2017-11-26T03:49:13.471Z,101195.02
2017-11-26T03:51:44.811Z,101199.80
2017-11-26T03:54:16.408Z,101198.52
2017-11-26T03:56:47.708Z,101208.02
2017-11-26T03:59:19.068Z,101207.20
2017-11-26T04:01:50.641Z,101211.95
2017-11-26T04:04:21.917Z,101208.02
2017-11-26T04:06:53.509Z,101213.65
2017-11-26T04:09:24.795Z,101210.65
2017-11-26T04:11:56.391Z,101213.25
2017-11-26T04:14:27.957Z,101202.87
2017-11-26T04:16:59.280Z,101210.30
2017-11-26T04:19:30.812Z,101211.98
2017-11-26T04:22:03.821Z,101215.88
2017-11-26T04:24:35.581Z,101212.31
2017-11-26T04:27:07.257Z,101208.38
2017-11-26T04:29:39.914Z,101200.95
2017-11-26T04:32:11.221Z,101201.39
2017-11-26T04:34:43.867Z,101203.49
2017-11-26T04:37:15.198Z,101195.70
2017-11-26T04:39:47.262Z,101196.09
2017-11-26T04:42:19.062Z,101201.28
2017-11-26T04:44:50.542Z,101201.34
2017-11-26T04:47:22.130Z,101210.41
2017-11-26T04:49:53.450Z,101209.09
2017-11-26T04:52:24.735Z,101206.87
2017-11-26T04:54:56.322Z,101211.73
2017-11-26T04:57:27.820Z,101218.72
2017-11-26T04:59:59.472Z,101221.39
2017-11-26T05:02:31.931Z,101225.69
2017-11-26T05:05:03.556Z,101230.92
2017-11-26T05:07:34.894Z,101228.25
2017-11-26T05:10:06.224Z,101227.88
2017-11-26T05:12:38.141Z,101226.13
2017-11-26T05:15:09.492Z,101228.68
2017-11-26T05:17:41.048Z,101235.19
2017-11-26T05:20:12.401Z,101240.36
2017-11-26T05:22:43.703Z,101240.33
2017-11-26T05:25:15.325Z,101238.55
2017-11-26T05:27:46.649Z,101241.52
2017-11-26T05:30:18.134Z,101239.27
2017-11-26T05:32:49.741Z,101237.54
2017-11-26T05:35:21.161Z,101247.48
2017-11-26T05:37:52.871Z,101244.00
2017-11-26T05:40:24.298Z,101245.67
2017-11-26T05:42:55.987Z,101251.70
2017-11-26T05:45:27.670Z,101268.61
2017-11-26T05:47:59.093Z,101269.00
2017-11-26T05:50:30.488Z,101268.45
2017-11-26T05:53:02.313Z,101260.91
2017-11-26T05:55:34.069Z,101266.06
2017-11-26T05:58:06.860Z,101272.55
2017-11-26T06:00:39.092Z,101261.30
2017-11-26T06:03:10.441Z,101263.95
2017-11-26T06:05:42.072Z,101267.43
2017-11-26T06:08:13.427Z,101254.45
2017-11-26T06:10:44.752Z,101261.45
2017-11-26T06:13:16.370Z,101258.45
2017-11-26T06:15:48.132Z,101263.29
2017-11-26T06:18:19.477Z,101252.47
2017-11-26T06:20:50.824Z,101264.08
2017-11-26T06:23:22.412Z,101259.32
2017-11-26T06:25:53.752Z,101260.61
2017-11-26T06:28:25.110Z,101266.22
2017-11-26T06:30:56.742Z,101254.92
2017-11-26T06:33:28.744Z,101262.31
2017-11-26T06:36:00.132Z,101261.83
2017-11-26T06:38:31.895Z,101261.78
2017-11-26T06:41:03.586Z,101259.16
2017-11-26T06:43:35.372Z,101267.38
2017-11-26T06:46:07.090Z,101267.36
2017-11-26T06:48:38.449Z,101257.73
2017-11-26T06:51:10.048Z,101268.19
2017-11-26T06:53:41.369Z,101267.70
2017-11-26T06:56:12.778Z,101271.11
2017-11-26T06:58:44.111Z,101278.83
2017-11-26T07:01:15.431Z,101285.73
2017-11-26T07:03:47.040Z,101284.81
2017-11-26T07:06:18.489Z,101287.52
2017-11-26T07:08:49.826Z,101291.75
2017-11-26T07:11:22.999Z,101290.39
2017-11-26T07:13:54.698Z,101293.84
2017-11-26T07:16:28.907Z,101294.70
2017-11-26T07:19:00.551Z,101292.45
2017-11-26T07:21:32.884Z,101295.05
2017-11-26T07:24:05.239Z,101293.33
2017-11-26T07:26:36.725Z,101302.13
2017-11-26T07:29:08.196Z,101303.38
2017-11-26T07:31:39.530Z,101310.28
2017-11-26T07:34:10.847Z,101308.49
2017-11-26T07:36:42.443Z,101316.67
2017-11-26T07:39:13.791Z,101315.27
2017-11-26T07:41:45.468Z,101317.38
2017-11-26T07:44:17.906Z,101313.94
2017-11-26T07:46:49.282Z,101316.95
2017-11-26T07:49:21.076Z,101311.17
2017-11-26T07:51:52.406Z,101316.27
2017-11-26T07:54:23.853Z,101316.23
2017-11-26T07:56:55.473Z,101319.99
2017-11-26T07:59:26.825Z,101319.72
2017-11-26T08:01:58.386Z,101314.76
2017-11-26T08:04:29.953Z,101321.57
2017-11-26T08:07:01.880Z,101319.80
2017-11-26T08:09:33.826Z,101322.41
2017-11-26T08:12:06.487Z,101322.23
2017-11-26T08:14:38.760Z,101322.47
2017-11-26T08:17:10.079Z,101322.00
2017-11-26T08:19:41.382Z,101326.50
2017-11-26T08:22:12.980Z,101317.80
2017-11-26T08:24:44.281Z,101326.91
2017-11-26T08:27:15.570Z,101324.30
2017-11-26T08:29:47.150Z,101329.88
2017-11-26T08:32:18.456Z,101324.44
2017-11-26T08:34:50.026Z,101328.87
2017-11-26T08:37:21.476Z,101324.13
2017-11-26T08:39:52.810Z,101322.05
2017-11-26T08:42:24.836Z,101326.23
2017-11-26T08:44:56.553Z,101334.13
2017-11-26T08:47:27.987Z,101334.95
2017-11-26T08:49:59.710Z,101335.27
2017-11-26T08:52:31.702Z,101337.79
2017-11-26T08:55:03.773Z,101337.84
2017-11-26T08:57:35.152Z,101347.19
2017-11-26T09:00:07.198Z,101352.16
2017-11-26T09:02:40.080Z,101351.28
2017-11-26T09:05:11.354Z,101356.52
2017-11-26T09:07:43.047Z,101353.38
2017-11-26T09:10:14.464Z,101352.77
2017-11-26T09:12:46.118Z,101355.40
2017-11-26T09:15:18.321Z,101354.58
2017-11-26T09:17:49.735Z,101356.66
2017-11-26T09:20:21.461Z,101369.39
2017-11-26T09:22:52.892Z,101361.04
2017-11-26T09:25:24.877Z,101367.72
2017-11-26T09:27:57.511Z,101369.42
2017-11-26T09:30:29.202Z,101364.78
2017-11-26T09:33:00.548Z,101361.69
2017-11-26T09:35:33.377Z,101371.59
2017-11-26T09:38:05.770Z,101366.46
2017-11-26T09:40:38.786Z,101363.72
2017-11-26T09:43:13.532Z,101362.02
2017-11-26T09:45:45.378Z,101371.64
2017-11-26T09:48:16.972Z,101369.86
2017-11-26T09:50:48.289Z,101374.88
2017-11-26T09:53:19.644Z,101368.95
2017-11-26T09:55:51.013Z,101359.30
2017-11-26T09:58:22.490Z,101360.04
2017-11-26T10:00:54.075Z,101363.95
2017-11-26T10:03:25.496Z,101366.38
2017-11-26T10:05:56.888Z,101368.18
2017-11-26T10:08:28.705Z,101362.05
2017-11-26T10:11:00.201Z,101351.38
2017-11-26T10:13:31.566Z,101358.49
2017-11-26T10:16:04.488Z,101361.30
2017-11-26T10:18:35.840Z,101355.25
2017-11-26T10:21:07.730Z,101354.34
2017-11-26T10:23:39.462Z,101356.80
2017-11-26T10:26:10.829Z,101359.08
2017-11-26T10:28:42.129Z,101354.95
2017-11-26T10:31:13.764Z,101356.33
2017-11-26T10:33:45.185Z,101361.19
2017-11-26T10:36:20.876Z,101350.47
2017-11-26T10:38:52.281Z,101362.99
2017-11-26T10:41:23.769Z,101353.81
2017-11-26T10:43:55.688Z,101362.95
2017-11-26T10:46:27.385Z,101368.87
2017-11-26T10:48:58.808Z,101367.49
2017-11-26T10:51:31.077Z,101368.48
2017-11-26T10:54:04.200Z,101373.54
2017-11-26T10:56:36.977Z,101380.23
2017-11-26T10:59:08.379Z,101383.54
2017-11-26T11:01:40.582Z,101374.83
2017-11-26T11:04:12.805Z,101373.87
2017-11-26T11:06:50.972Z,101384.67
2017-11-26T11:09:23.281Z,101384.40
2017-11-26T11:11:54.700Z,101377.69
2017-11-26T11:14:26.901Z,101384.73
2017-11-26T11:16:58.846Z,101371.17
2017-11-26T11:19:31.449Z,101377.76
2017-11-26T11:22:04.095Z,101377.36
2017-11-26T11:24:38.156Z,101377.84
2017-11-26T11:27:09.928Z,101378.92
2017-11-26T11:29:41.482Z,101383.70
2017-11-26T11:32:12.837Z,101394.06
2017-11-26T11:34:44.139Z,101389.63
2017-11-26T11:37:15.461Z,101393.19
2017-11-26T11:39:47.204Z,101394.33
2017-11-26T11:42:19.665Z,101387.80
2017-11-26T11:44:51.781Z,101392.97
2017-11-26T11:47:24.010Z,101393.89
2017-11-26T11:49:55.559Z,101388.89
2017-11-26T11:52:27.208Z,101389.80
2017-11-26T11:54:59.038Z,101390.89
2017-11-26T11:57:30.636Z,101392.76
2017-11-26T12:00:03.289Z,101386.10
2017-11-26T12:02:35.088Z,101386.80
2017-11-26T12:05:06.651Z,101384.89
2017-11-26T12:07:39.379Z,101387.84
2017-11-26T12:10:11.283Z,101385.67
2017-11-26T12:12:43.372Z,101387.96
2017-11-26T12:15:14.762Z,101394.44
2017-11-26T12:17:47.181Z,101386.86
2017-11-26T12:20:18.553Z,101390.27
2017-11-26T12:22:50.768Z,101395.41
2017-11-26T12:25:23.079Z,101400.14
2017-11-26T12:27:54.503Z,101399.39
2017-11-26T12:30:26.036Z,101397.41
2017-11-26T12:35:49.951Z,101399.23
2017-11-26T12:38:25.547Z,101398.27
2017-11-26T12:43:38.251Z,101411.12
2017-11-26T12:46:10.522Z,101413.86
2017-11-26T12:48:43.398Z,101401.77
2017-11-26T12:51:15.502Z,101398.56
2017-11-26T12:53:47.301Z,101403.34
2017-11-26T12:56:21.412Z,101398.05
2017-11-26T12:58:52.942Z,101398.48
2017-11-26T13:01:28.384Z,101398.52
2017-11-26T13:03:59.842Z,101394.84
2017-11-26T13:06:31.918Z,101400.10
2017-11-26T13:09:04.060Z,101392.13
2017-11-26T13:11:35.699Z,101398.44
2017-11-26T13:14:07.295Z,101394.25
2017-11-26T13:16:38.954Z,101400.66
2017-11-26T13:19:10.503Z,101403.27
2017-11-26T13:21:41.915Z,101400.18
2017-11-26T13:24:14.448Z,101403.46
2017-11-26T13:26:45.822Z,101393.66
2017-11-26T13:29:17.310Z,101391.88
2017-11-26T13:31:49.060Z,101398.37
2017-11-26T13:34:20.877Z,101398.96
2017-11-26T13:36:52.385Z,101403.24
2017-11-26T13:39:24.794Z,101390.49
2017-11-26T13:41:56.231Z,101394.45
2017-11-26T13:44:27.842Z,101397.87
2017-11-26T13:46:59.312Z,101388.00
2017-11-26T13:49:31.374Z,101392.34
2017-11-26T13:52:04.108Z,101405.24
2017-11-26T13:54:35.622Z,101396.30
2017-11-26T13:57:07.425Z,101388.86
2017-11-26T13:59:41.983Z,101397.66
2017-11-26T14:02:13.737Z,101399.95
2017-11-26T14:04:47.947Z,101397.61
2017-11-26T14:07:20.488Z,101395.30
2017-11-26T14:09:52.030Z,101388.82
2017-11-26T14:12:23.900Z,101398.33
2017-11-26T14:14:55.315Z,101404.73
2017-11-26T14:17:27.099Z,101404.02
2017-11-26T14:19:59.084Z,101409.52
2017-11-26T14:22:32.089Z,101413.55
2017-11-26T14:25:03.859Z,101407.57
2017-11-26T14:27:36.699Z,101426.91
2017-11-26T14:30:09.697Z,101420.84
2017-11-26T14:32:41.152Z,101421.27
2017-11-26T14:35:14.513Z,101428.12
2017-11-26T14:37:46.124Z,101424.05
2017-11-26T14:40:19.103Z,101421.80
2017-11-26T14:42:54.384Z,101424.64
2017-11-26T14:45:28.193Z,101424.25
2017-11-26T14:47:59.894Z,101419.82
2017-11-26T14:50:31.338Z,101417.73
2017-11-26T14:53:03.255Z,101422.98
2017-11-26T14:55:34.734Z,101425.62
2017-11-26T14:58:07.819Z,101423.45
2017-11-26T15:00:40.644Z,101427.88
2017-11-26T15:03:12.285Z,101426.03
2017-11-26T15:05:44.123Z,101423.89
2017-11-26T15:08:16.559Z,101433.41
2017-11-26T15:10:48.262Z,101448.66
2017-11-26T15:13:20.118Z,101442.81
2017-11-26T15:15:51.555Z,101434.88
2017-11-26T15:18:23.209Z,101437.55
2017-11-26T15:20:54.851Z,101438.82
2017-11-26T15:23:26.977Z,101440.05
2017-11-26T15:25:58.489Z,101457.11
2017-11-26T15:28:31.162Z,101452.15
2017-11-26T15:31:03.044Z,101457.44
2017-11-26T15:33:36.410Z,101454.43
2017-11-26T15:36:08.369Z,101450.52
2017-11-26T15:38:39.938Z,101460.58
2017-11-26T15:41:11.314Z,101462.35
2017-11-26T15:43:44.802Z,101462.42
2017-11-26T15:46:16.999Z,101468.50
2017-11-26T15:48:48.559Z,101452.91
2017-11-26T15:51:20.009Z,101465.94
2017-11-26T15:53:51.420Z,101459.84
2017-11-26T15:56:23.758Z,101466.77
2017-11-26T15:58:56.895Z,101471.58
2017-11-26T16:01:28.423Z,101474.55
2017-11-26T16:04:05.671Z,101478.99
2017-11-26T16:06:37.710Z,101487.58
2017-11-26T16:09:10.890Z,101485.05
2017-11-26T16:11:42.509Z,101489.05
2017-11-26T16:14:13.910Z,101488.61
2017-11-26T16:16:45.284Z,101488.71
2017-11-26T16:19:17.004Z,101484.00
2017-11-26T16:21:48.902Z,101489.24
2017-11-26T16:24:20.287Z,101483.53
2017-11-26T16:26:53.261Z,101485.30
2017-11-26T16:29:24.643Z,101497.00
2017-11-26T16:31:57.343Z,101488.84
2017-11-26T16:34:29.071Z,101490.17
2017-11-26T16:37:01.477Z,101491.07
2017-11-26T16:39:32.906Z,101490.20
2017-11-26T16:42:06.199Z,101490.64
2017-11-26T16:44:37.848Z,101490.33
2017-11-26T16:47:09.828Z,101490.73
2017-11-26T16:49:41.879Z,101499.47
2017-11-26T16:52:13.311Z,101499.50
2017-11-26T16:54:45.534Z,101512.49
2017-11-26T16:57:18.019Z,101526.90
2017-11-26T16:59:50.817Z,101517.84
2017-11-26T17:02:22.785Z,101530.81
2017-11-26T17:04:54.909Z,101523.02
2017-11-26T17:07:26.748Z,101524.87
2017-11-26T17:09:59.863Z,101527.47
2017-11-26T17:12:31.456Z,101524.87
2017-11-26T17:15:05.306Z,101533.66
2017-11-26T17:17:36.896Z,101543.98
2017-11-26T17:20:08.325Z,101534.98
2017-11-26T17:22:40.784Z,101548.44
2017-11-26T17:25:12.401Z,101541.91
2017-11-26T17:27:44.132Z,101540.58
2017-11-26T17:30:15.715Z,101538.43
2017-11-26T17:32:48.413Z,101532.30
2017-11-26T17:35:20.819Z,101530.56
2017-11-26T17:37:52.280Z,101538.27
2017-11-26T17:40:24.630Z,101536.48
2017-11-26T17:42:57.546Z,101533.84
2017-11-26T17:45:29.710Z,101539.52
2017-11-26T17:48:01.352Z,101537.83
2017-11-26T17:50:34.925Z,101535.17
2017-11-26T17:53:06.907Z,101530.78
2017-11-26T17:55:40.677Z,101534.63
2017-11-26T17:58:12.780Z,101538.53
2017-11-26T18:00:44.506Z,101540.73
2017-11-26T18:03:15.849Z,101538.91
2017-11-26T18:05:49.005Z,101549.80
2017-11-26T18:08:20.623Z,101549.36
2017-11-26T18:10:52.123Z,101561.06
2017-11-26T18:13:24.289Z,101567.13
2017-11-26T18:15:55.803Z,101563.37
2017-11-26T18:18:27.534Z,101568.55
2017-11-26T18:21:00.358Z,101562.39
2017-11-26T18:23:31.690Z,101566.75
2017-11-26T18:26:04.832Z,101560.11
2017-11-26T18:28:38.001Z,101564.53
2017-11-26T18:31:09.636Z,101568.03
2017-11-26T18:33:40.998Z,101561.46
2017-11-26T18:36:12.345Z,101564.50
2017-11-26T18:38:43.995Z,101565.02
2017-11-26T18:41:15.420Z,101568.47
2017-11-26T18:43:46.797Z,101569.84
2017-11-26T18:46:18.621Z,101565.89
2017-11-26T18:48:50.868Z,101566.30
2017-11-26T18:51:22.970Z,101562.84
2017-11-26T18:53:54.433Z,101563.83
2017-11-26T18:56:27.864Z,101570.41
2017-11-26T18:59:03.262Z,101568.63
2017-11-26T19:01:35.312Z,101572.53
2017-11-26T19:04:07.065Z,101572.91
2017-11-26T19:06:39.389Z,101576.48
2017-11-26T19:09:10.775Z,101576.46
2017-11-26T19:11:45.387Z,101576.48
2017-11-26T19:14:16.842Z,101574.86
2017-11-26T19:16:48.400Z,101565.73
2017-11-26T19:19:24.457Z,101573.52
2017-11-26T19:22:07.421Z,101576.11
2017-11-26T19:24:44.012Z,101573.55
2017-11-26T19:27:18.969Z,101582.20
2017-11-26T19:29:51.392Z,101575.21
2017-11-26T19:32:23.050Z,101582.28
2017-11-26T19:34:54.417Z,101582.69
2017-11-26T19:37:26.099Z,101582.23
2017-11-26T19:39:57.444Z,101582.16
2017-11-26T19:42:30.627Z,101582.62
2017-11-26T19:45:02.584Z,101584.41
2017-11-26T19:47:35.021Z,101585.66
2017-11-26T19:50:07.432Z,101595.25
2017-11-26T19:52:39.974Z,101594.84
2017-11-26T19:55:11.404Z,101598.21
2017-11-26T19:57:44.004Z,101598.67
2017-11-26T20:00:15.645Z,101606.56
2017-11-26T20:02:47.465Z,101608.39
2017-11-26T20:05:18.994Z,101619.60
2017-11-26T20:07:50.530Z,101613.52
2017-11-26T20:10:23.087Z,101613.45
2017-11-26T20:12:54.989Z,101614.70
2017-11-26T20:15:26.414Z,101621.67
2017-11-26T20:17:58.989Z,101623.02
2017-11-26T20:20:30.564Z,101628.52
2017-11-26T20:23:02.555Z,101624.55
2017-11-26T20:25:34.104Z,101623.27
2017-11-26T20:28:07.008Z,101622.42
2017-11-26T20:30:38.814Z,101616.37
2017-11-26T20:33:10.232Z,101615.89
2017-11-26T20:35:41.810Z,101621.17
2017-11-26T20:38:13.203Z,101615.47
2017-11-26T20:40:44.510Z,101614.13
2017-11-26T20:43:16.102Z,101609.81
2017-11-26T20:45:47.414Z,101614.99
2017-11-26T20:48:19.832Z,101609.75
2017-11-26T20:50:51.445Z,101607.16
2017-11-26T20:53:22.828Z,101608.48
2017-11-26T20:55:54.133Z,101607.67
2017-11-26T20:58:25.704Z,101605.11
2017-11-26T21:00:57.037Z,101604.75
2017-11-26T21:03:28.934Z,101603.56
2017-11-26T21:06:00.677Z,101605.28
2017-11-26T21:08:32.809Z,101600.87
2017-11-26T21:11:05.747Z,101603.11
2017-11-26T21:13:37.174Z,101608.31
2017-11-26T21:16:08.769Z,101605.27
2017-11-26T21:21:40.705Z,101608.06
2017-11-26T21:24:12.882Z,101608.94
2017-11-26T21:26:44.800Z,101615.03
2017-11-26T21:29:16.889Z,101612.03
2017-11-26T21:31:48.905Z,101614.13
2017-11-26T21:34:22.744Z,101608.02
2017-11-26T21:36:54.906Z,101613.25
2017-11-26T21:39:28.299Z,101614.45
2017-11-26T21:42:00.140Z,101607.99
2017-11-26T21:44:32.271Z,101608.48
2017-11-26T21:47:04.484Z,101611.12
2017-11-26T21:49:36.270Z,101610.69
2017-11-26T21:52:09.164Z,101604.22
2017-11-26T21:54:41.751Z,101607.71
2017-11-26T21:57:13.529Z,101615.47
2017-11-26T21:59:45.613Z,101607.61
2017-11-26T22:02:17.882Z,101614.55
2017-11-26T22:04:51.016Z,101618.07
2017-11-26T22:07:22.993Z,101622.00
2017-11-26T22:09:55.111Z,101614.62
2017-11-26T22:12:26.870Z,101622.29
2017-11-26T22:14:58.752Z,101612.44
2017-11-26T22:17:30.789Z,101614.98
2017-11-26T22:20:04.200Z,101616.66
2017-11-26T22:22:36.487Z,101613.55
2017-11-26T22:25:08.516Z,101615.66
2017-11-26T22:27:40.283Z,101613.52
2017-11-26T22:30:12.035Z,101611.33
2017-11-26T22:35:57.606Z,101611.47
2017-11-26T22:38:29.660Z,101606.65
2017-11-26T22:41:01.135Z,101615.00
2017-11-26T22:43:32.742Z,101605.48
2017-11-26T22:46:05.346Z,101612.77
2017-11-26T22:48:36.689Z,101617.50
2017-11-26T22:51:08.058Z,101612.22
2017-11-26T22:53:39.374Z,101607.02
2017-11-26T22:56:10.764Z,101614.00
2017-11-26T22:58:43.887Z,101608.39
2017-11-26T23:01:15.254Z,101616.22
2017-11-26T23:03:48.263Z,101607.45
2017-11-26T23:06:19.964Z,101614.81
2017-11-26T23:08:51.325Z,101607.50
2017-11-26T23:11:23.106Z,101612.70
2017-11-26T23:13:55.988Z,101607.83
2017-11-26T23:16:27.526Z,101611.26
2017-11-26T23:18:58.845Z,101607.33
2017-11-26T23:21:31.927Z,101602.63
2017-11-26T23:24:04.670Z,101607.02
2017-11-26T23:26:36.006Z,101601.38
2017-11-26T23:29:07.748Z,101598.00
2017-11-26T23:31:39.134Z,101598.23
2017-11-26T23:34:10.724Z,101594.70
2017-11-26T23:36:42.764Z,101598.12
2017-11-26T23:39:14.192Z,101600.77
2017-11-26T23:41:45.550Z,101600.84
2017-11-26T23:44:17.244Z,101602.58
2017-11-26T23:46:48.567Z,101599.09
2017-11-26T23:49:19.937Z,101607.70
2017-11-26T23:51:51.543Z,101603.37
2017-11-26T23:54:23.119Z,101600.33
2017-11-26T23:56:54.447Z,101599.43
2017-11-26T23:59:26.125Z,101595.95
